createdAt,value
2022-12-26T00:02:26.443Z,101053.56
2022-12-26T00:04:56.481Z,101062.48
2022-12-26T00:07:26.594Z,101059.69
2022-12-26T00:09:56.353Z,101061.39
2022-12-26T00:12:25.791Z,101053.33
2022-12-26T00:14:55.554Z,101054.11
2022-12-26T00:17:25.288Z,101062.17
2022-12-26T00:19:55.062Z,101065.14
2022-12-26T00:22:24.501Z,101061.48
2022-12-26T00:24:54.568Z,101053.70
2022-12-26T00:27:24.302Z,101058.66
2022-12-26T00:29:54.452Z,101066.31
2022-12-26T00:32:24.083Z,101065.94
2022-12-26T00:34:53.840Z,101078.82
2022-12-26T00:37:23.669Z,101069.05
2022-12-26T00:39:53.699Z,101074.59
2022-12-26T00:42:23.145Z,101086.34
2022-12-26T00:44:52.907Z,101092.77
2022-12-26T00:47:22.659Z,101092.34
2022-12-26T00:50:12.355Z,101087.61
2022-12-26T00:52:24.055Z,101099.08
2022-12-26T00:54:53.808Z,101102.61
2022-12-26T00:57:23.551Z,101104.75
2022-12-26T00:59:53.303Z,101106.22
2022-12-26T01:02:38.449Z,101096.41
2022-12-26T01:05:12.056Z,101107.66
2022-12-26T01:08:22.792Z,101101.26
2022-12-26T01:10:14.973Z,101102.64
2022-12-26T01:12:44.742Z,101096.45
2022-12-26T01:15:14.604Z,101096.45
2022-12-26T01:17:44.371Z,101095.31
2022-12-26T01:20:14.965Z,101102.08
2022-12-26T01:22:44.807Z,101117.00
2022-12-26T01:25:14.651Z,101114.61
2022-12-26T01:27:44.852Z,101119.94
2022-12-26T01:30:14.565Z,101108.08
2022-12-26T01:32:44.623Z,101113.31
2022-12-26T01:35:14.091Z,101106.45
2022-12-26T01:37:43.844Z,101098.63
2022-12-26T01:40:15.036Z,101104.34
2022-12-26T01:42:44.777Z,101105.50
2022-12-26T01:45:29.838Z,101097.20
2022-12-26T01:48:11.230Z,101097.59
2022-12-26T01:50:44.132Z,101090.38
2022-12-26T01:53:16.905Z,101094.39
2022-12-26T01:55:49.771Z,101099.13
2022-12-26T01:58:22.301Z,101103.42
2022-12-26T02:00:52.745Z,101100.17
2022-12-26T02:03:40.764Z,101100.49
2022-12-26T02:06:13.824Z,101110.88
2022-12-26T02:08:45.609Z,101113.47
2022-12-26T02:11:41.585Z,101110.67
2022-12-26T02:14:11.564Z,101096.93
2022-12-26T02:16:43.236Z,101105.50
2022-12-26T02:19:21.767Z,101102.65
2022-12-26T02:22:16.635Z,101104.45
2022-12-26T02:25:10.500Z,101111.22
2022-12-26T02:27:49.804Z,101124.66
2022-12-26T02:30:44.373Z,101123.16
2022-12-26T02:33:25.286Z,101120.56
2022-12-26T02:36:12.464Z,101118.87
2022-12-26T02:38:56.661Z,101112.88
2022-12-26T02:41:44.059Z,101121.73
2022-12-26T02:44:46.155Z,101114.44
2022-12-26T02:47:27.785Z,101117.80
2022-12-26T02:50:30.077Z,101123.98
2022-12-26T02:53:23.277Z,101123.93
2022-12-26T02:56:13.684Z,101120.73
2022-12-26T02:59:56.339Z,101118.16
2022-12-26T03:02:12.605Z,101112.23
2022-12-26T03:05:01.589Z,101111.39
2022-12-26T03:07:52.187Z,101116.34
2022-12-26T03:10:45.230Z,101112.16
2022-12-26T03:13:19.722Z,101112.16
2022-12-26T03:16:12.740Z,101117.44
2022-12-26T03:18:57.847Z,101120.48
2022-12-26T03:21:20.731Z,101111.08
2022-12-26T03:23:55.172Z,101113.80
2022-12-26T03:26:43.565Z,101113.80
2022-12-26T03:29:34.628Z,101125.34
2022-12-26T03:32:09.428Z,101122.38
2022-12-26T03:34:45.118Z,101105.38
2022-12-26T03:37:47.880Z,101107.42
2022-12-26T03:40:44.820Z,101098.69
2022-12-26T03:43:37.966Z,101105.38
2022-12-26T03:49:46.464Z,101095.17
2022-12-26T03:52:48.588Z,101101.34
2022-12-26T03:55:47.962Z,101100.62
2022-12-26T03:58:46.782Z,101111.03
2022-12-26T04:01:37.426Z,101107.45
2022-12-26T04:04:30.188Z,101116.72
2022-12-26T04:07:20.746Z,101131.91
2022-12-26T04:10:24.835Z,101140.59
2022-12-26T04:13:13.445Z,101136.56
2022-12-26T04:16:21.709Z,101154.50
2022-12-26T04:19:24.407Z,101148.81
2022-12-26T04:22:19.918Z,101154.34
2022-12-26T04:25:15.744Z,101151.30
2022-12-26T04:28:03.248Z,101150.42
2022-12-26T04:30:52.570Z,101164.09
2022-12-26T04:33:43.159Z,101161.92
2022-12-26T04:36:34.408Z,101162.83
2022-12-26T04:39:24.846Z,101157.70
2022-12-26T04:42:15.349Z,101155.05
2022-12-26T04:44:46.822Z,101144.52
2022-12-26T04:47:18.083Z,101153.55
2022-12-26T04:50:05.661Z,101149.75
2022-12-26T04:52:52.849Z,101150.44
2022-12-26T04:55:22.578Z,101156.66
2022-12-26T04:57:52.420Z,101150.79
2022-12-26T05:00:24.348Z,101137.45
2022-12-26T05:03:18.238Z,101130.48
2022-12-26T05:06:04.630Z,101118.91
2022-12-26T05:08:58.363Z,101108.90
2022-12-26T05:11:29.157Z,101109.41
2022-12-26T05:13:59.837Z,101105.50
2022-12-26T05:16:43.573Z,101121.03
2022-12-26T05:19:34.046Z,101124.41
2022-12-26T05:22:24.371Z,101134.47
2022-12-26T05:25:12.428Z,101133.91
2022-12-26T05:28:02.460Z,101133.48
2022-12-26T05:30:32.400Z,101141.77
2022-12-26T05:33:19.764Z,101149.53
2022-12-26T05:35:49.504Z,101143.48
2022-12-26T05:38:19.052Z,101137.16
2022-12-26T05:40:49.563Z,101139.59
2022-12-26T05:43:19.780Z,101149.09
2022-12-26T05:45:49.591Z,101133.30
2022-12-26T05:48:19.500Z,101130.73
2022-12-26T05:50:49.356Z,101140.44
2022-12-26T05:53:19.455Z,101122.23
2022-12-26T05:55:49.205Z,101122.23
2022-12-26T05:58:18.973Z,101112.12
2022-12-26T06:00:48.961Z,101106.67
2022-12-26T06:03:18.892Z,101097.84
2022-12-26T06:05:48.694Z,101097.84
2022-12-26T06:08:18.194Z,101102.07
2022-12-26T06:10:47.800Z,101113.31
2022-12-26T06:13:17.609Z,101104.24
2022-12-26T06:15:47.354Z,101112.12
2022-12-26T06:18:17.089Z,101113.93
2022-12-26T06:20:46.809Z,101121.16
2022-12-26T06:23:16.308Z,101124.43
2022-12-26T06:25:46.018Z,101120.22
2022-12-26T06:28:15.828Z,101121.22
2022-12-26T06:30:45.846Z,101120.58
2022-12-26T06:33:15.719Z,101128.96
2022-12-26T06:35:46.213Z,101124.14
2022-12-26T06:38:15.970Z,101140.81
2022-12-26T06:40:46.017Z,101142.48
2022-12-26T06:43:15.800Z,101143.25
2022-12-26T06:45:45.515Z,101154.55
2022-12-26T06:48:14.997Z,101152.94
2022-12-26T06:50:44.714Z,101162.23
2022-12-26T06:53:14.465Z,101168.39
2022-12-26T06:55:44.235Z,101161.70
2022-12-26T06:58:13.985Z,101157.92
2022-12-26T07:00:43.848Z,101161.05
2022-12-26T07:03:13.663Z,101155.11
2022-12-26T07:05:43.832Z,101137.93
2022-12-26T07:08:13.357Z,101151.41
2022-12-26T07:10:43.094Z,101154.45
2022-12-26T07:13:12.816Z,101162.84
2022-12-26T07:15:42.539Z,101158.84
2022-12-26T07:18:12.057Z,101165.00
2022-12-26T07:20:41.780Z,101165.02
2022-12-26T07:23:11.561Z,101164.67
2022-12-26T07:25:41.368Z,101167.64
2022-12-26T07:28:11.304Z,101173.34
2022-12-26T07:30:41.061Z,101170.16
2022-12-26T07:33:10.766Z,101171.91
2022-12-26T07:35:40.492Z,101175.04
2022-12-26T07:38:12.923Z,101182.93
2022-12-26T07:40:42.775Z,101179.69
2022-12-26T07:43:12.852Z,101175.45
2022-12-26T07:45:45.859Z,101181.86
2022-12-26T07:48:13.793Z,101180.45
2022-12-26T07:50:45.345Z,101183.36
2022-12-26T07:53:15.823Z,101180.90
2022-12-26T07:55:45.580Z,101179.90
2022-12-26T07:58:15.051Z,101179.90
2022-12-26T08:00:45.148Z,101172.45
2022-12-26T08:03:15.105Z,101174.66
2022-12-26T08:05:50.037Z,101174.95
2022-12-26T08:08:19.892Z,101171.94
2022-12-26T08:10:49.794Z,101184.23
2022-12-26T08:13:19.575Z,101192.30
2022-12-26T08:15:49.354Z,101189.98
2022-12-26T08:18:19.070Z,101192.53
2022-12-26T08:20:49.533Z,101204.57
2022-12-26T08:23:19.670Z,101200.48
2022-12-26T08:25:49.410Z,101200.63
2022-12-26T08:28:19.027Z,101200.63
2022-12-26T08:30:49.920Z,101207.60
2022-12-26T08:33:19.673Z,101209.41
2022-12-26T08:35:49.743Z,101199.52
2022-12-26T08:38:19.455Z,101180.81
2022-12-26T08:40:59.413Z,101188.81
2022-12-26T08:43:45.288Z,101181.59
2022-12-26T08:46:11.506Z,101181.59
2022-12-26T08:48:42.108Z,101182.95
2022-12-26T08:51:17.943Z,101184.02
2022-12-26T08:53:49.666Z,101184.95
2022-12-26T08:56:23.027Z,101191.36
2022-12-26T08:58:52.841Z,101199.81
2022-12-26T09:01:28.132Z,101208.38
2022-12-26T09:04:01.878Z,101206.23
2022-12-26T09:06:33.927Z,101202.56
2022-12-26T09:09:04.001Z,101218.52
2022-12-26T09:11:34.258Z,101214.52
2022-12-26T09:14:07.437Z,101209.13
2022-12-26T09:16:49.342Z,101205.81
2022-12-26T09:19:17.603Z,101209.38
2022-12-26T09:21:48.284Z,101224.45
2022-12-26T09:24:19.437Z,101220.92
2022-12-26T09:26:49.241Z,101216.52
2022-12-26T09:29:19.000Z,101227.06
2022-12-26T09:31:48.788Z,101227.94
2022-12-26T09:34:18.974Z,101244.26
2022-12-26T09:36:48.717Z,101244.26
2022-12-26T09:39:18.469Z,101235.99
2022-12-26T09:41:56.838Z,101244.42
2022-12-26T09:44:53.545Z,101243.78
2022-12-26T09:47:34.837Z,101258.45
2022-12-26T09:50:11.871Z,101251.84
2022-12-26T09:52:53.289Z,101247.75
2022-12-26T09:55:37.633Z,101246.34
2022-12-26T09:58:15.078Z,101253.20
2022-12-26T10:00:53.324Z,101251.23
2022-12-26T10:03:24.923Z,101249.11
2022-12-26T10:06:00.290Z,101254.69
2022-12-26T10:08:48.860Z,101258.01
2022-12-26T10:11:27.112Z,101258.57
2022-12-26T10:14:00.046Z,101275.63
2022-12-26T10:16:57.673Z,101284.02
2022-12-26T10:19:45.722Z,101312.08
2022-12-26T10:22:28.416Z,101322.08
2022-12-26T10:25:01.353Z,101327.05
2022-12-26T10:27:34.132Z,101334.56
2022-12-26T10:30:10.250Z,101331.59
2022-12-26T10:32:43.188Z,101327.52
2022-12-26T10:35:27.812Z,101340.06
2022-12-26T10:38:00.610Z,101342.33
2022-12-26T10:40:47.416Z,101351.91
2022-12-26T10:43:20.422Z,101347.78
2022-12-26T10:45:55.426Z,101353.95
2022-12-26T10:48:27.946Z,101355.62
2022-12-26T10:50:58.607Z,101357.50
2022-12-26T10:53:28.441Z,101360.33
2022-12-26T10:56:01.480Z,101369.64
2022-12-26T10:58:34.723Z,101369.58
2022-12-26T11:01:26.924Z,101382.61
2022-12-26T11:03:59.120Z,101389.91
2022-12-26T11:06:40.515Z,101393.16
2022-12-26T11:09:35.616Z,101407.95
2022-12-26T11:12:09.291Z,101409.63
2022-12-26T11:14:45.084Z,101419.19
2022-12-26T11:17:26.570Z,101418.16
2022-12-26T11:20:20.067Z,101425.58
2022-12-26T11:22:49.844Z,101443.12
2022-12-26T11:25:22.790Z,101453.00
2022-12-26T11:27:58.151Z,101459.69
2022-12-26T11:30:36.426Z,101462.44
2022-12-26T11:33:14.655Z,101451.17
2022-12-26T11:35:54.730Z,101463.52
2022-12-26T11:38:44.051Z,101455.86
2022-12-26T11:41:39.254Z,101466.42
2022-12-26T11:44:27.818Z,101486.12
2022-12-26T11:47:12.782Z,101487.33
2022-12-26T11:49:54.418Z,101491.39
2022-12-26T11:52:37.493Z,101491.66
2022-12-26T11:55:28.065Z,101504.09
2022-12-26T11:58:09.466Z,101492.07
2022-12-26T12:00:41.478Z,101495.01
2022-12-26T12:03:17.171Z,101492.94
2022-12-26T12:05:58.780Z,101498.89
2022-12-26T12:08:47.168Z,101488.19
2022-12-26T12:11:22.675Z,101490.25
2022-12-26T12:14:14.663Z,101504.50
2022-12-26T12:17:15.823Z,101517.59
2022-12-26T12:20:07.558Z,101523.20
2022-12-26T12:22:48.756Z,101525.91
2022-12-26T12:25:30.128Z,101511.14
2022-12-26T12:28:18.944Z,101517.59
2022-12-26T12:31:18.714Z,101518.75
2022-12-26T12:34:03.639Z,101508.71
2022-12-26T12:36:47.575Z,101509.52
2022-12-26T12:39:20.386Z,101518.77
2022-12-26T12:42:11.586Z,101514.66
2022-12-26T12:44:50.359Z,101519.75
2022-12-26T12:47:28.115Z,101510.77
2022-12-26T12:50:19.929Z,101510.97
2022-12-26T12:53:10.145Z,101530.16
2022-12-26T12:55:48.165Z,101528.80
2022-12-26T12:58:46.030Z,101527.56
2022-12-26T13:01:24.452Z,101527.56
2022-12-26T13:04:12.025Z,101529.95
2022-12-26T13:06:44.900Z,101535.34
2022-12-26T13:09:20.358Z,101529.11
2022-12-26T13:11:55.559Z,101535.55
2022-12-26T13:14:30.657Z,101538.30
2022-12-26T13:17:19.273Z,101539.14
2022-12-26T13:20:02.631Z,101537.28
2022-12-26T13:22:56.048Z,101551.55
2022-12-26T13:25:29.942Z,101556.97
2022-12-26T13:28:04.899Z,101547.66
2022-12-26T13:30:34.494Z,101547.66
2022-12-26T13:33:06.168Z,101551.39
2022-12-26T13:35:57.939Z,101560.23
2022-12-26T13:38:53.885Z,101565.47
2022-12-26T13:41:37.329Z,101569.20
2022-12-26T13:44:19.099Z,101569.70
2022-12-26T13:46:51.702Z,101576.14
2022-12-26T13:49:38.920Z,101583.62
2022-12-26T13:52:18.219Z,101593.95
2022-12-26T13:54:53.979Z,101587.54
2022-12-26T13:57:42.665Z,101599.91
2022-12-26T14:00:15.292Z,101598.20
2022-12-26T14:03:19.704Z,101605.02
2022-12-26T14:05:58.564Z,101606.68
2022-12-26T14:08:55.017Z,101608.49
2022-12-26T14:11:37.111Z,101608.12
2022-12-26T14:14:20.083Z,101614.81
2022-12-26T14:16:55.850Z,101618.67
2022-12-26T14:19:43.081Z,101629.25
2022-12-26T14:22:18.406Z,101621.41
2022-12-26T14:25:21.223Z,101629.04
2022-12-26T14:28:14.816Z,101635.64
2022-12-26T14:30:59.367Z,101635.69
2022-12-26T14:33:48.336Z,101637.73
2022-12-26T14:36:43.458Z,101633.61
2022-12-26T14:42:34.024Z,101647.13
2022-12-26T14:45:05.751Z,101657.40
2022-12-26T14:47:49.803Z,101660.19
2022-12-26T14:50:37.496Z,101667.87
2022-12-26T14:53:27.781Z,101671.47
2022-12-26T14:56:13.851Z,101682.05
2022-12-26T14:58:49.246Z,101683.06
2022-12-26T15:01:24.955Z,101692.88
2022-12-26T15:04:20.337Z,101707.49
2022-12-26T15:07:14.079Z,101701.88
2022-12-26T15:10:19.072Z,101701.52
2022-12-26T15:13:09.544Z,101705.91
2022-12-26T15:16:03.169Z,101709.28
2022-12-26T15:19:07.321Z,101718.51
2022-12-26T15:21:56.570Z,101723.13
2022-12-26T15:25:16.994Z,101728.06
2022-12-26T15:27:29.303Z,101731.44
2022-12-26T15:30:18.556Z,101743.05
2022-12-26T15:33:00.263Z,101743.16
2022-12-26T15:35:38.829Z,101747.55
2022-12-26T15:38:16.354Z,101754.36
2022-12-26T15:41:12.690Z,101747.02
2022-12-26T15:43:45.490Z,101746.52
2022-12-26T15:46:36.070Z,101755.39
2022-12-26T15:49:09.119Z,101757.20
2022-12-26T15:51:58.424Z,101768.87
2022-12-26T15:54:49.391Z,101769.88
2022-12-26T15:57:33.656Z,101772.24
2022-12-26T16:00:18.171Z,101775.69
2022-12-26T16:03:08.879Z,101783.43
2022-12-26T16:05:59.448Z,101780.95
2022-12-26T16:08:43.824Z,101793.39
2022-12-26T16:11:25.881Z,101798.81
2022-12-26T16:14:00.963Z,101794.09
2022-12-26T16:16:37.221Z,101799.39
2022-12-26T16:19:18.117Z,101804.45
2022-12-26T16:22:08.590Z,101803.88
2022-12-26T16:24:41.348Z,101805.53
2022-12-26T16:27:14.152Z,101805.53
2022-12-26T16:29:49.399Z,101811.41
2022-12-26T16:32:21.971Z,101813.19
2022-12-26T16:34:52.050Z,101824.22
2022-12-26T16:37:24.687Z,101837.37
2022-12-26T16:40:09.244Z,101837.16
2022-12-26T16:42:40.678Z,101838.14
2022-12-26T16:47:55.469Z,101848.69
2022-12-26T16:50:28.456Z,101853.00
2022-12-26T16:53:13.250Z,101853.76
2022-12-26T16:55:54.305Z,101850.71
2022-12-26T16:58:26.870Z,101851.56
2022-12-26T17:01:02.264Z,101842.61
2022-12-26T17:03:58.983Z,101848.66
2022-12-26T17:06:33.961Z,101854.77
2022-12-26T17:09:09.398Z,101856.27
2022-12-26T17:11:53.433Z,101857.27
2022-12-26T17:14:29.136Z,101862.03
2022-12-26T17:17:01.282Z,101864.79
2022-12-26T17:19:33.275Z,101868.28
2022-12-26T17:22:20.237Z,101858.11
2022-12-26T17:24:52.493Z,101863.57
2022-12-26T17:27:27.268Z,101869.77
2022-12-26T17:30:00.960Z,101870.18
2022-12-26T17:32:36.792Z,101875.17
2022-12-26T17:35:13.578Z,101883.00
2022-12-26T17:37:44.547Z,101886.77
2022-12-26T17:40:19.844Z,101894.00
2022-12-26T17:43:15.591Z,101892.14
2022-12-26T17:45:47.124Z,101899.05
2022-12-26T17:48:17.125Z,101901.73
2022-12-26T17:50:49.669Z,101902.91
2022-12-26T17:53:26.439Z,101894.27
2022-12-26T17:55:57.537Z,101892.56
2022-12-26T17:58:27.632Z,101893.46
2022-12-26T18:00:59.106Z,101900.05
2022-12-26T18:03:29.708Z,101903.72
2022-12-26T18:05:59.521Z,101903.50
2022-12-26T18:08:32.266Z,101898.44
2022-12-26T18:11:04.447Z,101909.82
2022-12-26T18:13:34.194Z,101910.64
2022-12-26T18:16:05.441Z,101916.60
2022-12-26T18:18:40.161Z,101918.91
2022-12-26T18:21:12.667Z,101931.20
2022-12-26T18:23:42.393Z,101934.58
2022-12-26T18:26:17.789Z,101944.39
2022-12-26T18:28:50.608Z,101939.94
2022-12-26T18:31:20.405Z,101933.88
2022-12-26T18:33:50.955Z,101936.00
2022-12-26T18:36:23.231Z,101935.81
2022-12-26T18:38:52.962Z,101953.80
2022-12-26T18:41:22.777Z,101953.80
2022-12-26T18:43:53.010Z,101947.00
2022-12-26T18:46:24.877Z,101947.85
2022-12-26T18:48:56.644Z,101968.11
2022-12-26T18:51:29.407Z,101966.30
2022-12-26T18:53:59.509Z,101969.40
2022-12-26T18:56:28.997Z,101970.59
2022-12-26T18:58:58.764Z,101970.59
2022-12-26T19:01:28.701Z,101983.13
2022-12-26T19:03:58.689Z,101995.19
2022-12-26T19:06:32.320Z,101992.77
2022-12-26T19:09:02.715Z,101992.94
2022-12-26T19:11:32.519Z,101992.87
2022-12-26T19:14:02.050Z,102000.13
2022-12-26T19:16:31.948Z,102012.84
2022-12-26T19:19:01.759Z,102021.58
2022-12-26T19:21:31.663Z,102015.08
2022-12-26T19:24:01.498Z,102019.93
2022-12-26T19:26:31.237Z,102021.27
2022-12-26T19:29:01.362Z,102029.35
2022-12-26T19:31:30.882Z,102029.45
2022-12-26T19:34:00.968Z,102033.33
2022-12-26T19:36:30.745Z,102029.90
2022-12-26T19:39:01.035Z,102033.97
2022-12-26T19:41:31.347Z,102035.84
2022-12-26T19:44:01.999Z,102044.11
2022-12-26T19:46:31.429Z,102039.09
2022-12-26T19:49:01.174Z,102030.00
2022-12-26T19:51:30.985Z,102042.69
2022-12-26T19:54:01.072Z,102043.67
2022-12-26T19:56:31.037Z,102046.46
2022-12-26T19:59:01.254Z,102041.94
2022-12-26T20:01:32.953Z,102044.93
2022-12-26T20:04:06.924Z,102042.95
2022-12-26T20:06:39.235Z,102051.86
2022-12-26T20:09:11.258Z,102051.66
2022-12-26T20:11:44.571Z,102051.66
2022-12-26T20:14:19.296Z,102052.68
2022-12-26T20:17:07.854Z,102051.01
2022-12-26T20:19:23.731Z,102057.36
2022-12-26T20:21:54.255Z,102050.58
2022-12-26T20:24:24.740Z,102060.06
2022-12-26T20:26:54.946Z,102058.21
2022-12-26T20:29:25.002Z,102053.45
2022-12-26T20:31:55.312Z,102057.83
2022-12-26T20:34:25.105Z,102058.44
2022-12-26T20:36:54.910Z,102047.13
2022-12-26T20:39:25.642Z,102052.28
2022-12-26T20:41:55.815Z,102056.04
2022-12-26T20:44:25.387Z,102068.28
2022-12-26T20:46:55.122Z,102068.28
2022-12-26T20:49:24.877Z,102066.33
2022-12-26T20:51:54.653Z,102072.90
2022-12-26T20:54:24.777Z,102067.92
2022-12-26T20:56:54.841Z,102074.09
2022-12-26T20:59:24.894Z,102072.44
2022-12-26T21:01:54.764Z,102076.79
2022-12-26T21:04:24.488Z,102075.28
2022-12-26T21:06:54.252Z,102072.30
2022-12-26T21:09:24.166Z,102074.78
2022-12-26T21:11:53.874Z,102116.03
2022-12-26T21:14:24.260Z,102080.94
2022-12-26T21:16:56.757Z,102088.33
2022-12-26T21:19:29.320Z,102084.03
2022-12-26T21:21:59.205Z,102087.45
2022-12-26T21:24:31.182Z,102094.14
2022-12-26T21:27:01.491Z,102099.05
2022-12-26T21:29:34.146Z,102099.41
2022-12-26T21:32:05.033Z,102099.88
2022-12-26T21:34:35.816Z,102099.88
2022-12-26T21:37:23.323Z,102107.34
2022-12-26T21:39:53.425Z,102109.75
2022-12-26T21:42:23.241Z,102103.38
2022-12-26T21:44:56.071Z,102109.64
2022-12-26T21:47:26.101Z,102110.27
2022-12-26T21:49:56.192Z,102114.95
2022-12-26T21:52:25.992Z,102112.13
2022-12-26T21:55:13.612Z,102113.70
2022-12-26T21:57:43.785Z,102121.23
2022-12-26T22:00:13.920Z,102125.84
2022-12-26T22:03:01.872Z,102133.88
2022-12-26T22:05:41.490Z,102127.11
2022-12-26T22:08:12.108Z,102130.44
2022-12-26T22:11:02.381Z,102140.30
2022-12-26T22:13:40.994Z,102137.05
2022-12-26T22:16:12.118Z,102139.80
2022-12-26T22:18:44.942Z,102137.77
2022-12-26T22:21:19.751Z,102146.87
2022-12-26T22:23:51.036Z,102146.87
2022-12-26T22:26:22.870Z,102144.21
2022-12-26T22:28:53.278Z,102154.17
2022-12-26T22:31:32.215Z,102141.60
2022-12-26T22:34:04.750Z,102153.47
2022-12-26T22:36:35.566Z,102149.91
2022-12-26T22:39:05.826Z,102149.91
2022-12-26T22:41:37.413Z,102169.78
2022-12-26T22:44:08.141Z,102169.78
2022-12-26T22:46:37.927Z,102167.05
2022-12-26T22:49:08.150Z,102182.57
2022-12-26T22:51:37.727Z,102169.51
2022-12-26T22:54:08.010Z,102172.48
2022-12-26T22:56:37.724Z,102168.61
2022-12-26T22:59:07.839Z,102164.98
2022-12-26T23:01:37.703Z,102164.67
2022-12-26T23:04:07.839Z,102178.03
2022-12-26T23:06:39.770Z,102187.70
2022-12-26T23:09:15.375Z,102192.66
2022-12-26T23:11:46.978Z,102196.88
2022-12-26T23:14:18.966Z,102196.88
2022-12-26T23:16:57.745Z,102193.19
2022-12-26T23:19:50.103Z,102194.77
2022-12-26T23:22:19.879Z,102196.57
2022-12-26T23:24:49.577Z,102193.19
2022-12-26T23:27:37.029Z,102190.58
2022-12-26T23:30:20.222Z,102195.70
2022-12-26T23:32:54.054Z,102196.42
2022-12-26T23:35:24.559Z,102203.31
2022-12-26T23:37:55.060Z,102206.64
2022-12-26T23:40:24.951Z,102204.03
2022-12-26T23:42:54.936Z,102207.89
2022-12-26T23:45:24.696Z,102212.53
2022-12-26T23:47:54.772Z,102206.51
2022-12-26T23:50:24.424Z,102208.61
2022-12-26T23:52:54.261Z,102211.58
2022-12-26T23:55:23.982Z,102211.58
2022-12-26T23:57:55.208Z,102215.59
